Time;durP1;ratioP1;P1;durP2;ratioP2;P2;SDS_P1;SDS_P2;PMS_P1;PMS_P2;Temp;Humidity;BMP_temperature;BMP_pressure;BME280_temperature;BME280_humidity;BME280_pressure;Samples;Min_cycle;Max_cycle;Signal;HPM_P1;HPM_P2
2023/09/03 00:01:14;;;;;;;;;;;24.50;48.70;;;;;;5031652;28;20016;-70
2023/09/03 00:03:40;;;;;;;;;;;23.90;50.50;;;;;;5029760;28;19967;-69
2023/09/03 00:06:07;;;;;;;;;;;24.20;51.70;;;;;;5026250;28;19933;-70
2023/09/03 00:08:34;;;;;;;;;;;24.60;49.30;;;;;;5031575;28;19921;-69
2023/09/03 00:11:00;;;;;;;;;;;24.60;46.70;;;;;;5033713;28;19966;-69
2023/09/03 00:13:27;;;;;;;;;;;24.40;48.80;;;;;;5031485;28;19928;-69
2023/09/03 00:15:54;;;;;;;;;;;25.30;47.90;;;;;;5031256;28;20364;-69
2023/09/03 00:18:20;;;;;;;;;;;25.20;46.40;;;;;;5032777;28;21363;-69
2023/09/03 00:20:57;;;;;;;;;;;25.10;46.20;;;;;;5030164;28;20948;-72
2023/09/03 00:23:24;;;;;;;;;;;24.90;45.00;;;;;;5032634;28;19917;-71
2023/09/03 00:25:50;;;;;;;;;;;24.90;47.40;;;;;;5024813;28;19913;-70
2023/09/03 00:28:17;;;;;;;;;;;24.90;45.30;;;;;;5031487;28;19917;-71
2023/09/03 00:30:44;;;;;;;;;;;25.50;45.20;;;;;;5027546;28;19925;-71
2023/09/03 00:33:10;;;;;;;;;;;25.70;46.70;;;;;;5030529;28;19921;-69
2023/09/03 00:35:40;;;;;;;;;;;25.60;46.10;;;;;;5032269;28;19917;-69
2023/09/03 00:38:07;;;;;;;;;;;25.50;46.00;;;;;;5029689;28;19917;-69
2023/09/03 00:40:43;;;;;;;;;;;25.50;47.20;;;;;;5031381;28;19928;-71
2023/09/03 00:43:09;;;;;;;;;;;26.00;45.60;;;;;;5029196;28;19996;-68
2023/09/03 00:45:36;;;;;;;;;;;26.40;43.90;;;;;;5027970;28;19956;-69
2023/09/03 00:48:03;;;;;;;;;;;26.70;45.70;;;;;;5029270;28;19924;-67
2023/09/03 00:50:30;;;;;;;;;;;26.40;44.90;;;;;;5030392;28;19987;-69
2023/09/03 00:52:57;;;;;;;;;;;26.40;44.10;;;;;;5026705;28;19964;-70
2023/09/03 00:55:23;;;;;;;;;;;26.60;44.60;;;;;;5029747;28;19913;-70
2023/09/03 00:57:50;;;;;;;;;;;26.50;44.70;;;;;;5027907;28;19940;-71
2023/09/03 01:00:17;;;;;;;;;;;26.90;41.60;;;;;;5032176;28;19913;-70
2023/09/03 01:02:45;;;;;;;;;;;26.60;43.60;;;;;;5029552;28;19917;-68
2023/09/03 01:05:13;;;;;;;;;;;25.90;43.20;;;;;;5026061;28;19956;-69
2023/09/03 01:07:39;;;;;;;;;;;25.20;43.30;;;;;;5030106;28;20771;-71
2023/09/03 01:10:06;;;;;;;;;;;24.40;44.50;;;;;;5029609;28;19925;-69
2023/09/03 01:12:38;;;;;;;;;;;24.30;45.30;;;;;;5028139;28;19919;-70
2023/09/03 01:15:14;;;;;;;;;;;24.50;46.00;;;;;;5026280;28;20353;-70
2023/09/03 01:17:46;;;;;;;;;;;24.90;46.50;;;;;;5025294;28;20314;-69
2023/09/03 01:20:22;;;;;;;;;;;25.10;44.10;;;;;;5028221;28;19917;-70
2023/09/03 01:23:07;;;;;;;;;;;25.30;45.00;;;;;;5026439;28;19948;-69
2023/09/03 01:25:36;;;;;;;;;;;25.40;43.50;;;;;;5031121;28;19917;-69
2023/09/03 01:28:24;;;;;;;;;;;25.30;46.00;;;;;;5025938;28;20450;-69
2023/09/03 01:31:05;;;;;;;;;;;25.40;43.30;;;;;;5027432;28;19929;-69
2023/09/03 01:33:33;;;;;;;;;;;25.30;44.00;;;;;;5023982;28;19956;-71
2023/09/03 01:36:02;;;;;;;;;;;25.40;45.30;;;;;;5030743;28;19913;-69
2023/09/03 01:38:29;;;;;;;;;;;25.60;43.30;;;;;;5029856;28;19920;-71
2023/09/03 01:40:55;;;;;;;;;;;25.20;44.20;;;;;;5025616;28;19913;-70
2023/09/03 01:43:22;;;;;;;;;;;25.60;43.40;;;;;;5028388;28;19921;-69
2023/09/03 01:45:49;;;;;;;;;;;25.20;43.90;;;;;;5032905;28;19921;-70
2023/09/03 01:48:29;;;;;;;;;;;25.20;44.90;;;;;;5027717;28;19956;-71
2023/09/03 01:51:13;;;;;;;;;;;25.10;44.30;;;;;;5026131;28;20012;-69
2023/09/03 01:53:54;;;;;;;;;;;25.50;43.80;;;;;;5026676;28;19953;-70
2023/09/03 01:56:22;;;;;;;;;;;24.60;44.10;;;;;;5029182;28;19929;-70
2023/09/03 01:58:52;;;;;;;;;;;23.80;44.60;;;;;;5029669;28;19924;-69
2023/09/03 02:01:20;;;;;;;;;;;23.10;46.30;;;;;;5030113;28;19948;-73
2023/09/03 02:03:48;;;;;;;;;;;22.40;48.10;;;;;;5026144;28;19913;-69
2023/09/03 02:06:15;;;;;;;;;;;22.00;49.30;;;;;;5025693;28;19952;-69
2023/09/03 02:08:41;;;;;;;;;;;22.40;50.00;;;;;;5031078;28;19917;-70
2023/09/03 02:11:08;;;;;;;;;;;23.70;47.60;;;;;;5026747;28;19921;-68
2023/09/03 02:13:35;;;;;;;;;;;24.30;45.20;;;;;;5027968;28;19960;-69
2023/09/03 02:16:01;;;;;;;;;;;24.90;45.80;;;;;;5028468;28;20267;-69
2023/09/03 02:18:28;;;;;;;;;;;25.40;44.70;;;;;;5026607;28;19944;-69
2023/09/03 02:20:55;;;;;;;;;;;26.10;43.90;;;;;;5026912;28;20301;-70
2023/09/03 02:23:21;;;;;;;;;;;26.60;42.50;;;;;;5027224;28;19931;-69
2023/09/03 02:25:57;;;;;;;;;;;26.50;44.00;;;;;;5028288;28;19972;-70
2023/09/03 02:28:24;;;;;;;;;;;26.70;43.60;;;;;;5026816;28;19909;-69
2023/09/03 02:30:51;;;;;;;;;;;26.70;43.50;;;;;;5031955;28;19972;-69
2023/09/03 02:33:17;;;;;;;;;;;27.10;42.40;;;;;;5032622;28;20271;-68
2023/09/03 02:35:44;;;;;;;;;;;27.10;42.00;;;;;;5035831;28;19967;-69
2023/09/03 02:38:10;;;;;;;;;;;26.60;41.20;;;;;;5036364;28;19932;-69
2023/09/03 02:40:37;;;;;;;;;;;26.20;42.90;;;;;;5031159;28;19913;-69
2023/09/03 02:43:04;;;;;;;;;;;25.80;41.50;;;;;;5035592;28;20010;-69
2023/09/03 02:45:31;;;;;;;;;;;25.80;42.70;;;;;;5032395;28;19964;-70
2023/09/03 02:47:58;;;;;;;;;;;25.60;42.80;;;;;;5028756;28;20294;-68
2023/09/03 02:50:24;;;;;;;;;;;25.50;42.40;;;;;;5028175;28;19925;-71
2023/09/03 02:52:51;;;;;;;;;;;25.10;42.60;;;;;;5030763;28;20512;-68
2023/09/03 02:55:18;;;;;;;;;;;25.40;44.30;;;;;;5035011;28;20351;-69
2023/09/03 02:57:44;;;;;;;;;;;25.50;44.50;;;;;;5027690;28;20282;-69
2023/09/03 03:00:11;;;;;;;;;;;25.40;43.50;;;;;;5028804;28;19921;-69
2023/09/03 03:02:38;;;;;;;;;;;25.50;43.70;;;;;;5031197;28;19913;-70
2023/09/03 03:05:05;;;;;;;;;;;25.30;43.40;;;;;;5032373;28;19919;-70
2023/09/03 03:07:32;;;;;;;;;;;25.30;43.40;;;;;;5029439;28;20438;-70
2023/09/03 03:10:00;;;;;;;;;;;25.60;44.70;;;;;;5032762;28;19986;-69
2023/09/03 03:12:26;;;;;;;;;;;25.50;44.00;;;;;;5033232;28;19992;-68
2023/09/03 03:14:53;;;;;;;;;;;25.20;43.70;;;;;;5033656;28;20418;-70
2023/09/03 03:17:20;;;;;;;;;;;25.50;43.00;;;;;;5038263;28;19913;-70
2023/09/03 03:19:50;;;;;;;;;;;25.70;44.50;;;;;;5037202;28;20894;-71
2023/09/03 03:22:17;;;;;;;;;;;25.80;43.40;;;;;;5035473;28;19920;-71
2023/09/03 03:24:43;;;;;;;;;;;25.90;43.30;;;;;;5034176;28;19959;-69
2023/09/03 03:27:10;;;;;;;;;;;26.00;42.20;;;;;;5033827;28;19913;-70
2023/09/03 03:29:37;;;;;;;;;;;25.60;43.50;;;;;;5034216;28;19921;-72
2023/09/03 03:32:04;;;;;;;;;;;25.40;43.50;;;;;;5033946;28;19917;-70
2023/09/03 03:34:31;;;;;;;;;;;25.30;40.50;;;;;;5030677;28;19913;-70
2023/09/03 03:36:58;;;;;;;;;;;25.10;40.90;;;;;;5030068;28;20309;-72
2023/09/03 03:39:24;;;;;;;;;;;24.70;42.30;;;;;;5026279;28;19917;-73
2023/09/03 03:41:51;;;;;;;;;;;24.90;42.50;;;;;;5029940;28;20272;-72
2023/09/03 03:44:18;;;;;;;;;;;25.00;41.60;;;;;;5032364;28;19921;-72
2023/09/03 03:46:48;;;;;;;;;;;25.00;42.20;;;;;;5027361;28;20785;-72
2023/09/03 03:49:15;;;;;;;;;;;24.60;42.90;;;;;;5033380;28;19916;-72
2023/09/03 03:51:41;;;;;;;;;;;24.40;43.90;;;;;;5032680;28;19971;-72
2023/09/03 03:54:08;;;;;;;;;;;24.60;44.10;;;;;;5034527;28;20012;-72
2023/09/03 03:56:35;;;;;;;;;;;24.30;43.40;;;;;;5034146;28;20279;-72
2023/09/03 03:59:03;;;;;;;;;;;24.20;43.00;;;;;;5035082;28;19941;-72
2023/09/03 04:01:29;;;;;;;;;;;23.90;43.20;;;;;;5034631;28;19928;-72
2023/09/03 04:03:57;;;;;;;;;;;23.80;43.50;;;;;;5034277;28;20393;-72
2023/09/03 04:06:24;;;;;;;;;;;23.90;43.60;;;;;;5032976;28;19924;-71
2023/09/03 04:08:50;;;;;;;;;;;23.90;42.10;;;;;;5037546;28;19928;-72
2023/09/03 04:11:21;;;;;;;;;;;24.00;41.90;;;;;;5031225;28;19917;-72
2023/09/03 04:13:47;;;;;;;;;;;23.70;42.90;;;;;;5031704;28;19945;-72
2023/09/03 04:16:15;;;;;;;;;;;23.50;43.10;;;;;;5035829;28;20362;-72
2023/09/03 04:18:42;;;;;;;;;;;23.50;42.90;;;;;;5038544;28;20060;-71
2023/09/03 04:21:09;;;;;;;;;;;23.70;43.00;;;;;;5034400;28;19913;-72
2023/09/03 04:23:36;;;;;;;;;;;23.50;42.70;;;;;;5037058;28;20262;-72
2023/09/03 04:26:02;;;;;;;;;;;23.70;43.10;;;;;;5028771;28;19925;-72
2023/09/03 04:28:29;;;;;;;;;;;24.10;44.60;;;;;;5031514;28;20106;-73
2023/09/03 04:30:57;;;;;;;;;;;24.40;43.20;;;;;;5038282;28;19927;-72
2023/09/03 04:33:24;;;;;;;;;;;24.60;43.00;;;;;;5033303;28;19913;-72
2023/09/03 04:35:56;;;;;;;;;;;24.80;43.30;;;;;;5033712;28;19917;-72
2023/09/03 04:38:23;;;;;;;;;;;24.90;40.30;;;;;;5030855;28;19917;-72
2023/09/03 04:40:50;;;;;;;;;;;24.50;42.10;;;;;;5033571;28;19913;-72
2023/09/03 04:43:17;;;;;;;;;;;24.30;44.60;;;;;;5030787;28;19960;-73
2023/09/03 04:45:48;;;;;;;;;;;23.90;42.70;;;;;;5032837;28;19921;-72
2023/09/03 04:48:15;;;;;;;;;;;23.80;43.20;;;;;;5033520;28;19921;-72
2023/09/03 04:50:42;;;;;;;;;;;23.90;44.10;;;;;;5033241;28;19925;-72
2023/09/03 04:53:09;;;;;;;;;;;24.00;44.70;;;;;;5035439;28;20011;-71
2023/09/03 04:55:35;;;;;;;;;;;24.30;43.70;;;;;;5032260;28;19920;-72
2023/09/03 04:58:02;;;;;;;;;;;24.10;43.20;;;;;;5033724;28;20352;-73
2023/09/03 05:00:29;;;;;;;;;;;24.30;43.90;;;;;;5035271;28;19928;-73
2023/09/03 05:02:56;;;;;;;;;;;24.10;42.70;;;;;;5034950;28;19913;-72
2023/09/03 05:05:23;;;;;;;;;;;24.30;43.70;;;;;;5033209;28;19909;-71
2023/09/03 05:07:51;;;;;;;;;;;24.40;43.50;;;;;;5033486;28;19952;-72
2023/09/03 05:10:18;;;;;;;;;;;24.20;43.00;;;;;;5034041;28;19917;-73
2023/09/03 05:12:45;;;;;;;;;;;24.20;42.30;;;;;;5034634;28;19918;-73
2023/09/03 05:15:12;;;;;;;;;;;23.60;42.60;;;;;;5031728;28;19909;-72
2023/09/03 05:17:39;;;;;;;;;;;23.50;44.20;;;;;;5032034;28;19913;-72
2023/09/03 05:20:06;;;;;;;;;;;23.70;44.50;;;;;;5034361;28;19909;-72
2023/09/03 05:22:33;;;;;;;;;;;23.90;43.60;;;;;;5032161;28;19919;-73
2023/09/03 05:25:00;;;;;;;;;;;23.90;43.80;;;;;;5032772;28;19918;-73
2023/09/03 05:27:30;;;;;;;;;;;23.80;43.20;;;;;;5029306;28;20341;-73
2023/09/03 05:29:56;;;;;;;;;;;23.90;44.30;;;;;;5033186;28;20377;-73
2023/09/03 05:32:23;;;;;;;;;;;23.90;43.60;;;;;;5033802;28;19947;-73
2023/09/03 05:34:50;;;;;;;;;;;23.80;43.60;;;;;;5033438;28;19909;-71
2023/09/03 05:37:17;;;;;;;;;;;23.60;45.30;;;;;;5033811;28;19966;-71
2023/09/03 05:39:44;;;;;;;;;;;23.50;49.60;;;;;;5031469;28;19909;-71
2023/09/03 05:42:10;;;;;;;;;;;23.00;50.70;;;;;;5033266;28;19913;-74
2023/09/03 05:44:37;;;;;;;;;;;22.90;52.00;;;;;;5031662;28;19921;-73
2023/09/03 05:47:04;;;;;;;;;;;23.00;52.40;;;;;;5032869;28;19973;-73
2023/09/03 05:49:31;;;;;;;;;;;22.80;52.00;;;;;;5033635;28;19978;-73
2023/09/03 05:51:57;;;;;;;;;;;22.70;52.80;;;;;;5032823;28;20283;-73
2023/09/03 05:54:24;;;;;;;;;;;22.60;53.20;;;;;;5032315;28;20378;-73
2023/09/03 05:56:51;;;;;;;;;;;22.30;53.50;;;;;;5035426;28;19949;-73
2023/09/03 05:59:17;;;;;;;;;;;22.30;53.80;;;;;;5031148;28;19917;-73
2023/09/03 06:01:44;;;;;;;;;;;22.20;54.00;;;;;;5035462;28;20044;-73
2023/09/03 06:04:14;;;;;;;;;;;22.20;54.20;;;;;;5035756;28;19971;-73
2023/09/03 06:06:41;;;;;;;;;;;21.80;54.90;;;;;;5037716;28;20359;-72
2023/09/03 06:09:08;;;;;;;;;;;21.70;55.10;;;;;;5035499;28;20055;-73
2023/09/03 06:11:35;;;;;;;;;;;21.70;55.80;;;;;;5035359;28;19983;-72
2023/09/03 06:14:02;;;;;;;;;;;21.60;56.10;;;;;;5038690;28;19937;-73
2023/09/03 06:16:29;;;;;;;;;;;21.70;56.40;;;;;;5040434;28;19913;-73
2023/09/03 06:18:55;;;;;;;;;;;21.60;56.60;;;;;;5035973;28;19936;-72
2023/09/03 06:21:22;;;;;;;;;;;21.40;57.60;;;;;;5036946;28;20431;-72
2023/09/03 06:23:49;;;;;;;;;;;21.20;58.50;;;;;;5038348;28;19971;-72
2023/09/03 06:26:15;;;;;;;;;;;21.10;59.30;;;;;;5032781;28;20389;-72
2023/09/03 06:28:42;;;;;;;;;;;21.00;59.80;;;;;;5034946;28;19913;-73
2023/09/03 06:31:09;;;;;;;;;;;20.80;60.30;;;;;;5036127;28;19925;-72
2023/09/03 06:33:36;;;;;;;;;;;20.70;61.00;;;;;;5036838;28;19920;-72
2023/09/03 06:36:03;;;;;;;;;;;20.60;60.30;;;;;;5037040;28;19914;-72
2023/09/03 06:38:29;;;;;;;;;;;20.60;60.80;;;;;;5033445;28;19913;-73
2023/09/03 06:40:56;;;;;;;;;;;20.40;61.00;;;;;;5035523;28;19916;-73
2023/09/03 06:43:23;;;;;;;;;;;20.30;61.50;;;;;;5035038;28;19920;-72
2023/09/03 06:45:50;;;;;;;;;;;20.20;62.00;;;;;;5035077;28;19935;-72
2023/09/03 06:48:16;;;;;;;;;;;20.20;63.00;;;;;;5035614;28;19913;-72
2023/09/03 06:50:43;;;;;;;;;;;20.20;62.40;;;;;;5035393;28;19925;-73
2023/09/03 06:53:10;;;;;;;;;;;20.00;62.50;;;;;;5032964;28;19975;-73
2023/09/03 06:55:37;;;;;;;;;;;19.90;62.90;;;;;;5035879;28;19984;-72
2023/09/03 06:58:04;;;;;;;;;;;19.80;63.40;;;;;;5035467;28;19909;-72
2023/09/03 07:00:34;;;;;;;;;;;19.70;64.10;;;;;;5035499;28;19913;-72
2023/09/03 07:03:01;;;;;;;;;;;19.60;64.30;;;;;;5033538;28;19924;-73
2023/09/03 07:05:27;;;;;;;;;;;19.60;64.40;;;;;;5034421;28;19909;-73
2023/09/03 07:07:55;;;;;;;;;;;19.30;65.10;;;;;;5036209;28;19909;-72
2023/09/03 07:10:21;;;;;;;;;;;19.40;65.90;;;;;;5035752;28;19921;-72
2023/09/03 07:12:48;;;;;;;;;;;19.20;66.00;;;;;;5035020;28;19936;-73
2023/09/03 07:15:15;;;;;;;;;;;19.00;66.60;;;;;;5034171;28;19921;-72
2023/09/03 07:17:41;;;;;;;;;;;18.90;67.20;;;;;;5035746;28;20302;-72
2023/09/03 07:20:08;;;;;;;;;;;18.80;67.80;;;;;;5034091;28;19936;-72
2023/09/03 07:22:35;;;;;;;;;;;18.70;68.30;;;;;;5032074;28;19921;-72
2023/09/03 07:25:01;;;;;;;;;;;18.60;68.50;;;;;;5033836;28;19921;-73
2023/09/03 07:27:28;;;;;;;;;;;18.50;69.30;;;;;;5035655;28;19940;-72
2023/09/03 07:29:55;;;;;;;;;;;18.40;69.80;;;;;;5035082;28;20019;-73
2023/09/03 07:32:22;;;;;;;;;;;18.20;70.30;;;;;;5034536;28;19909;-72
2023/09/03 07:34:51;;;;;;;;;;;18.10;70.90;;;;;;5036078;28;19951;-72
2023/09/03 07:37:18;;;;;;;;;;;17.90;71.50;;;;;;5034177;28;19909;-71
2023/09/03 07:39:46;;;;;;;;;;;17.80;71.90;;;;;;5035724;28;19917;-73
2023/09/03 07:42:12;;;;;;;;;;;17.80;72.30;;;;;;5033122;28;19921;-72
2023/09/03 07:44:39;;;;;;;;;;;17.80;72.70;;;;;;5033884;28;20000;-73
2023/09/03 07:47:06;;;;;;;;;;;17.70;73.30;;;;;;5033927;28;19920;-71
2023/09/03 07:49:33;;;;;;;;;;;17.60;73.50;;;;;;5034544;28;20026;-73
2023/09/03 07:51:59;;;;;;;;;;;17.60;74.00;;;;;;5034198;28;19921;-72
2023/09/03 07:54:26;;;;;;;;;;;17.60;74.30;;;;;;5036965;28;19924;-73
2023/09/03 07:56:55;;;;;;;;;;;17.50;74.60;;;;;;5037613;28;19921;-72
2023/09/03 07:59:22;;;;;;;;;;;17.40;75.20;;;;;;5034667;28;19917;-72
2023/09/03 08:01:49;;;;;;;;;;;17.30;75.40;;;;;;5033980;28;20333;-73
2023/09/03 08:04:15;;;;;;;;;;;17.20;75.60;;;;;;5034283;28;19935;-72
2023/09/03 08:06:42;;;;;;;;;;;17.10;76.00;;;;;;5035669;28;19916;-73
2023/09/03 08:09:09;;;;;;;;;;;17.00;76.40;;;;;;5036513;28;19974;-73
2023/09/03 08:11:36;;;;;;;;;;;16.90;77.10;;;;;;5035127;28;19917;-73
2023/09/03 08:14:03;;;;;;;;;;;16.80;77.50;;;;;;5034547;28;19913;-72
2023/09/03 08:16:30;;;;;;;;;;;16.80;78.00;;;;;;5038593;28;19916;-72
2023/09/03 08:18:56;;;;;;;;;;;16.80;78.10;;;;;;5035299;28;19913;-72
2023/09/03 08:21:23;;;;;;;;;;;16.70;78.50;;;;;;5036791;28;19917;-72
2023/09/03 08:23:53;;;;;;;;;;;16.80;78.90;;;;;;5034022;28;19921;-72
2023/09/03 08:26:19;;;;;;;;;;;16.80;78.70;;;;;;5035290;28;19913;-72
2023/09/03 08:28:46;;;;;;;;;;;16.80;78.90;;;;;;5029886;28;19920;-72
2023/09/03 08:31:13;;;;;;;;;;;16.70;79.10;;;;;;5034803;28;19927;-72
2023/09/03 08:33:40;;;;;;;;;;;16.60;79.40;;;;;;5034098;28;19978;-71
2023/09/03 08:36:07;;;;;;;;;;;16.60;79.70;;;;;;5034144;28;19917;-72
2023/09/03 08:38:34;;;;;;;;;;;16.50;80.20;;;;;;5033652;28;19920;-72
2023/09/03 08:41:00;;;;;;;;;;;16.30;80.80;;;;;;5030308;28;20290;-71
2023/09/03 08:43:28;;;;;;;;;;;16.30;81.60;;;;;;5034554;28;19909;-72
2023/09/03 08:45:56;;;;;;;;;;;16.30;81.60;;;;;;5033214;28;20389;-72
2023/09/03 08:48:23;;;;;;;;;;;16.20;82.00;;;;;;5033925;28;20416;-71
2023/09/03 08:50:50;;;;;;;;;;;16.10;82.70;;;;;;5031171;28;19917;-71
2023/09/03 08:53:18;;;;;;;;;;;16.10;82.90;;;;;;5031817;28;20378;-72
2023/09/03 08:55:44;;;;;;;;;;;16.10;83.30;;;;;;5034877;28;19959;-72
2023/09/03 08:58:11;;;;;;;;;;;16.00;83.00;;;;;;5033198;28;19924;-72
2023/09/03 09:00:38;;;;;;;;;;;15.90;84.00;;;;;;5032951;28;19917;-71
2023/09/03 09:03:06;;;;;;;;;;;15.80;84.70;;;;;;5032675;28;19913;-72
2023/09/03 09:05:33;;;;;;;;;;;15.70;85.40;;;;;;5034572;28;19928;-72
2023/09/03 09:08:03;;;;;;;;;;;15.80;85.40;;;;;;5032669;28;19913;-72
2023/09/03 09:10:32;;;;;;;;;;;15.80;85.60;;;;;;5035411;28;19928;-72
2023/09/03 09:13:03;;;;;;;;;;;15.80;86.10;;;;;;5033797;28;19913;-72
2023/09/03 09:15:30;;;;;;;;;;;15.70;86.70;;;;;;5037127;28;19913;-73
2023/09/03 09:17:57;;;;;;;;;;;15.50;86.90;;;;;;5032284;28;20332;-72
2023/09/03 09:20:24;;;;;;;;;;;15.50;86.60;;;;;;5033828;28;19917;-73
2023/09/03 09:22:50;;;;;;;;;;;15.40;88.00;;;;;;5033256;28;19920;-73
2023/09/03 09:25:21;;;;;;;;;;;15.40;87.70;;;;;;5034763;28;20079;-73
2023/09/03 09:27:48;;;;;;;;;;;15.30;88.20;;;;;;5032797;28;20716;-73
2023/09/03 09:30:19;;;;;;;;;;;15.30;88.50;;;;;;5033747;28;20332;-73
2023/09/03 09:32:46;;;;;;;;;;;15.30;88.10;;;;;;5037968;28;19921;-73
2023/09/03 09:35:32;;;;;;;;;;;15.30;88.60;;;;;;5031609;28;19917;-72
2023/09/03 09:38:06;;;;;;;;;;;15.20;89.60;;;;;;5032157;28;20289;-72
2023/09/03 09:40:36;;;;;;;;;;;15.10;90.10;;;;;;5051925;28;20008;-72
2023/09/03 09:43:06;;;;;;;;;;;15.00;90.20;;;;;;5041409;28;20013;-73
2023/09/03 09:45:33;;;;;;;;;;;15.00;90.10;;;;;;5040546;28;19932;-72
2023/09/03 09:48:07;;;;;;;;;;;15.00;90.30;;;;;;5037638;28;19916;-73
2023/09/03 09:50:33;;;;;;;;;;;15.10;90.20;;;;;;5037042;28;19921;-72
2023/09/03 09:53:00;;;;;;;;;;;15.20;90.00;;;;;;5038011;28;19924;-72
2023/09/03 09:55:32;;;;;;;;;;;15.00;90.00;;;;;;5037201;28;19916;-73
2023/09/03 09:57:59;;;;;;;;;;;14.90;90.30;;;;;;5034510;28;20336;-73
2023/09/03 10:00:36;;;;;;;;;;;14.80;90.40;;;;;;5042636;28;19917;-71
2023/09/03 10:03:05;;;;;;;;;;;14.70;90.60;;;;;;5035653;28;19997;-71
2023/09/03 10:05:31;;;;;;;;;;;14.60;90.70;;;;;;5038932;28;19917;-73
2023/09/03 10:07:59;;;;;;;;;;;14.50;90.80;;;;;;5035429;28;19923;-71
2023/09/03 10:10:26;;;;;;;;;;;14.50;91.10;;;;;;5034690;28;19932;-72
2023/09/03 10:12:53;;;;;;;;;;;14.40;91.20;;;;;;5037969;28;19924;-72
2023/09/03 10:15:22;;;;;;;;;;;14.40;91.40;;;;;;5036110;28;20267;-71
2023/09/03 10:17:51;;;;;;;;;;;14.40;91.20;;;;;;5040577;28;20011;-71
2023/09/03 10:20:19;;;;;;;;;;;14.30;91.50;;;;;;5038477;28;19909;-71
2023/09/03 10:22:48;;;;;;;;;;;14.20;91.60;;;;;;5037834;28;19976;-71
2023/09/03 10:25:16;;;;;;;;;;;14.20;91.70;;;;;;5037081;28;20340;-72
2023/09/03 10:27:48;;;;;;;;;;;14.10;91.90;;;;;;5037583;28;20039;-71
2023/09/03 10:30:16;;;;;;;;;;;14.10;92.00;;;;;;5036478;28;19921;-72
2023/09/03 10:32:43;;;;;;;;;;;14.00;92.10;;;;;;5036887;28;19920;-71
2023/09/03 10:35:13;;;;;;;;;;;13.90;92.20;;;;;;5036544;28;20367;-71
2023/09/03 10:37:40;;;;;;;;;;;13.90;92.40;;;;;;5034443;28;19914;-71
2023/09/03 10:40:23;;;;;;;;;;;13.80;92.50;;;;;;5037768;28;19920;-72
2023/09/03 10:42:51;;;;;;;;;;;13.80;92.60;;;;;;5036371;28;19940;-71
2023/09/03 10:45:18;;;;;;;;;;;13.70;92.70;;;;;;5047234;28;20016;-72
2023/09/03 10:47:57;;;;;;;;;;;13.70;92.80;;;;;;5036834;28;20286;-72
2023/09/03 10:50:43;;;;;;;;;;;13.60;92.90;;;;;;5034463;28;20015;-73
2023/09/03 10:53:10;;;;;;;;;;;13.50;93.00;;;;;;5037450;28;20420;-72
2023/09/03 10:55:37;;;;;;;;;;;13.60;93.00;;;;;;5035604;28;20386;-71
2023/09/03 10:58:16;;;;;;;;;;;13.50;93.30;;;;;;5036709;28;19913;-71
2023/09/03 11:01:01;;;;;;;;;;;13.50;93.40;;;;;;5036382;28;20319;-72
2023/09/03 11:03:28;;;;;;;;;;;13.50;93.60;;;;;;5035726;28;19955;-72
2023/09/03 11:06:18;;;;;;;;;;;13.60;93.60;;;;;;5036731;28;20360;-71
2023/09/03 11:09:00;;;;;;;;;;;13.70;93.70;;;;;;5034941;28;19917;-71
2023/09/03 11:11:28;;;;;;;;;;;13.90;93.40;;;;;;5032661;28;19925;-71
2023/09/03 11:13:56;;;;;;;;;;;14.00;93.20;;;;;;5036037;28;19917;-71
2023/09/03 11:16:29;;;;;;;;;;;14.10;93.10;;;;;;5033482;28;20338;-71
2023/09/03 11:18:56;;;;;;;;;;;14.00;93.20;;;;;;5031911;28;19917;-71
2023/09/03 11:21:29;;;;;;;;;;;14.00;93.10;;;;;;5036687;28;20324;-72
2023/09/03 11:24:02;;;;;;;;;;;14.10;93.10;;;;;;5035396;28;19924;-72
2023/09/03 11:26:29;;;;;;;;;;;14.30;92.70;;;;;;5034222;28;20098;-71
2023/09/03 11:28:56;;;;;;;;;;;14.20;92.90;;;;;;5038881;28;19913;-71
2023/09/03 11:31:26;;;;;;;;;;;14.20;92.90;;;;;;5038008;28;20030;-73
2023/09/03 11:33:55;;;;;;;;;;;14.20;93.10;;;;;;5037508;28;20392;-74
2023/09/03 11:36:24;;;;;;;;;;;14.20;93.00;;;;;;5038189;28;19943;-73
2023/09/03 11:38:58;;;;;;;;;;;14.20;93.10;;;;;;5038206;28;20386;-72
2023/09/03 11:41:25;;;;;;;;;;;14.20;93.30;;;;;;5036225;28;19913;-72
2023/09/03 11:43:52;;;;;;;;;;;14.20;93.40;;;;;;5035195;28;19963;-73
2023/09/03 11:46:18;;;;;;;;;;;14.10;93.30;;;;;;5036542;28;19921;-72
2023/09/03 11:48:54;;;;;;;;;;;14.20;93.50;;;;;;5034360;28;19920;-73
2023/09/03 11:51:30;;;;;;;;;;;14.30;93.40;;;;;;5049457;28;19928;-73
2023/09/03 11:53:57;;;;;;;;;;;14.50;92.90;;;;;;5036547;28;20298;-73
2023/09/03 11:56:24;;;;;;;;;;;14.70;92.50;;;;;;5035299;28;19963;-72
2023/09/03 11:58:53;;;;;;;;;;;14.70;92.20;;;;;;5036259;28;19967;-73
2023/09/03 12:01:20;;;;;;;;;;;14.70;91.90;;;;;;5033708;28;20358;-72
2023/09/03 12:03:47;;;;;;;;;;;14.50;92.20;;;;;;5034317;28;19914;-72
2023/09/03 12:06:14;;;;;;;;;;;14.20;92.60;;;;;;5035907;28;19959;-71
2023/09/03 12:08:41;;;;;;;;;;;14.10;93.20;;;;;;5035933;28;19935;-72
2023/09/03 12:11:08;;;;;;;;;;;14.00;93.40;;;;;;5034633;28;19925;-71
2023/09/03 12:13:35;;;;;;;;;;;13.90;93.80;;;;;;5036895;28;19912;-70
2023/09/03 12:16:03;;;;;;;;;;;13.80;93.60;;;;;;5035126;28;19909;-71
2023/09/03 12:18:29;;;;;;;;;;;13.90;93.90;;;;;;5032259;28;19917;-71
2023/09/03 12:20:56;;;;;;;;;;;13.90;93.80;;;;;;5036151;28;19967;-71
2023/09/03 12:23:23;;;;;;;;;;;14.10;93.70;;;;;;5036316;28;19923;-72
2023/09/03 12:25:49;;;;;;;;;;;14.00;93.70;;;;;;5033518;28;20000;-72
2023/09/03 12:28:16;;;;;;;;;;;14.10;93.70;;;;;;5037180;28;19964;-72
2023/09/03 12:30:56;;;;;;;;;;;14.30;93.50;;;;;;5034090;28;19921;-71
2023/09/03 12:33:26;;;;;;;;;;;14.40;93.30;;;;;;5033747;28;19921;-71
2023/09/03 12:36:12;;;;;;;;;;;14.20;93.20;;;;;;5035285;28;19971;-72
2023/09/03 12:38:48;;;;;;;;;;;14.20;93.50;;;;;;5032364;28;20399;-72
2023/09/03 12:41:15;;;;;;;;;;;14.40;93.40;;;;;;5032186;28;20297;-72
2023/09/03 12:43:42;;;;;;;;;;;14.40;93.50;;;;;;5033640;28;19922;-71
2023/09/03 12:46:10;;;;;;;;;;;14.40;93.40;;;;;;5034513;28;19913;-70
2023/09/03 12:48:37;;;;;;;;;;;14.50;93.30;;;;;;5033954;28;19913;-71
2023/09/03 12:51:03;;;;;;;;;;;14.60;93.10;;;;;;5033686;28;20016;-71
2023/09/03 12:53:30;;;;;;;;;;;14.60;92.80;;;;;;5035096;28;19923;-72
2023/09/03 12:55:57;;;;;;;;;;;14.70;92.80;;;;;;5034528;28;20384;-70
2023/09/03 12:58:23;;;;;;;;;;;14.70;92.60;;;;;;5033551;28;19967;-72
2023/09/03 13:00:50;;;;;;;;;;;14.50;93.00;;;;;;5030912;28;19917;-71
2023/09/03 13:03:17;;;;;;;;;;;14.40;93.20;;;;;;5027594;28;19967;-71
2023/09/03 13:05:44;;;;;;;;;;;14.20;93.40;;;;;;5041781;28;19913;-71
2023/09/03 13:08:10;;;;;;;;;;;14.20;93.60;;;;;;5031979;28;19948;-70
2023/09/03 13:10:37;;;;;;;;;;;14.20;93.70;;;;;;5028469;28;20479;-71
2023/09/03 13:13:04;;;;;;;;;;;14.10;93.70;;;;;;5026099;28;20397;-70
2023/09/03 13:15:31;;;;;;;;;;;14.10;94.00;;;;;;5027858;28;19924;-72
2023/09/03 13:17:57;;;;;;;;;;;14.10;93.90;;;;;;5030842;28;19921;-71
2023/09/03 13:20:24;;;;;;;;;;;14.10;93.80;;;;;;5027708;28;19960;-70
2023/09/03 13:22:51;;;;;;;;;;;14.10;93.60;;;;;;5028918;28;19917;-70
2023/09/03 13:25:17;;;;;;;;;;;13.80;93.70;;;;;;5025467;28;19965;-72
2023/09/03 13:27:44;;;;;;;;;;;13.60;94.10;;;;;;5026714;28;19956;-71
2023/09/03 13:30:11;;;;;;;;;;;13.50;94.40;;;;;;5025172;28;20262;-71
2023/09/03 13:32:37;;;;;;;;;;;13.30;94.20;;;;;;5030138;28;20299;-70
2023/09/03 13:35:04;;;;;;;;;;;13.20;94.30;;;;;;5031878;28;20040;-71
2023/09/03 13:37:31;;;;;;;;;;;13.00;94.60;;;;;;5028602;28;19956;-71
2023/09/03 13:39:57;;;;;;;;;;;12.90;94.70;;;;;;5034320;28;19913;-71
2023/09/03 13:42:24;;;;;;;;;;;12.80;94.90;;;;;;5033408;28;19921;-70
2023/09/03 13:44:53;;;;;;;;;;;12.80;95.30;;;;;;5030278;28;19928;-71
2023/09/03 13:47:20;;;;;;;;;;;12.80;95.00;;;;;;5029714;28;19932;-70
2023/09/03 13:49:47;;;;;;;;;;;12.80;95.00;;;;;;5030530;28;20340;-72
2023/09/03 13:52:13;;;;;;;;;;;12.70;95.00;;;;;;5032746;28;20366;-71
2023/09/03 13:54:40;;;;;;;;;;;12.60;95.00;;;;;;5045151;28;19920;-70
2023/09/03 13:57:07;;;;;;;;;;;12.50;95.00;;;;;;5025510;28;20424;-71
2023/09/03 13:59:34;;;;;;;;;;;12.40;95.20;;;;;;5031203;28;20397;-71
2023/09/03 14:02:03;;;;;;;;;;;12.30;95.50;;;;;;5033196;28;20337;-71
2023/09/03 14:04:30;;;;;;;;;;;12.30;95.30;;;;;;5029986;28;20328;-71
2023/09/03 14:06:56;;;;;;;;;;;12.20;95.70;;;;;;5029210;28;19924;-71
2023/09/03 14:09:23;;;;;;;;;;;12.20;95.90;;;;;;5031951;28;20098;-71
2023/09/03 14:11:50;;;;;;;;;;;12.20;96.00;;;;;;5029318;28;19920;-70
2023/09/03 14:14:16;;;;;;;;;;;12.10;95.90;;;;;;5029159;28;19936;-70
2023/09/03 14:16:43;;;;;;;;;;;12.10;95.90;;;;;;5029180;28;20547;-71
2023/09/03 14:19:11;;;;;;;;;;;12.10;95.90;;;;;;5030768;28;20003;-70
2023/09/03 14:21:38;;;;;;;;;;;12.00;95.90;;;;;;5031783;28;19913;-70